FW1071 Bay Center WA US current weather conditions

sailwx.info

Wind from 084 at 3 knots gusting 5

Air temperature 7.2° C
Dewpoint 5.7° C

Last reported at 2020-Apr-06 08:01 UTC.
Time now 2020-Apr-06 08:43 UTC

Location: N 46°38' W 123°57'.
View on Google Maps.

See reports from other nearby stations

  
Tides and Currents Weather Stations Pressure Air Temp Water Temp Dewpoint Dewpoint Depression Visibility Wind Speed Wind Dir Waves Ship Positions
date/time (UTC)wind fromknots sea level pressurealtimeterstation pressurevisibilityair tempwater tempwave heightnotes
2020-Apr-06 08:01 084 3 gusting 5 7.2
2020-Apr-06 07:46 090 4 gusting 5 7.2
2020-Apr-06 07:31 105 2 gusting 6 7.2
2020-Apr-06 07:15 064 4 gusting 5 8.3
2020-Apr-06 07:01 005 6 gusting 10 8.9
2020-Apr-06 06:46 345 6 gusting 8 8.9
2020-Apr-06 06:31 341 4 gusting 6 8.9
2020-Apr-06 06:17 346 5 gusting 7 8.9
2020-Apr-06 06:02 343 3 gusting 7 8.9
2020-Apr-06 05:47 005 2 gusting 7 8.9
2020-Apr-06 05:30 327 8.9
2020-Apr-06 05:15 274 2 gusting 4 8.3
2020-Apr-06 05:00 015 7.8
2020-Apr-06 04:46 015 8.3
2020-Apr-06 04:30 013 8.9
2020-Apr-06 04:16 351 8.9
2020-Apr-06 04:00 299 1 gusting 6 8.9
2020-Apr-06 03:45 277 1 gusting 4 8.9
2020-Apr-06 03:30 272 0 gusting 5 8.9
2020-Apr-06 03:15 293 1 gusting 5 9.4
2020-Apr-06 03:00 273 2 gusting 5 9.4
2020-Apr-06 02:45 338 4 gusting 8 10.0
2020-Apr-06 02:30 281 3 gusting 7 10.6
2020-Apr-06 02:15 266 3 gusting 5 10.6
2020-Apr-06 02:00 011 2 gusting 7 10.6
2020-Apr-06 01:45 338 3 gusting 8 11.1
2020-Apr-06 01:30 338 4 gusting 9 11.1
2020-Apr-06 01:15 342 6 gusting 11 11.1
2020-Apr-06 01:00 331 4 gusting 13 11.7
2020-Apr-06 00:45 355 2 gusting 9 11.7
2020-Apr-06 00:30 319 3 gusting 12 12.2
2020-Apr-06 00:15 320 5 gusting 9 12.2
2020-Apr-06 00:00 263 5 gusting 11 12.2
2020-Apr-05 23:45 281 7 gusting 13 11.7
2020-Apr-05 23:30 284 7 gusting 15 11.1
2020-Apr-05 23:15 315 8 gusting 13 11.1
2020-Apr-05 23:00 303 7 gusting 13 10.6
2020-Apr-05 22:45 264 11 gusting 19 10.6
2020-Apr-05 22:30 266 12 gusting 18 10.0
2020-Apr-05 22:15 236 11 gusting 16 10.6
2020-Apr-05 22:00 264 3 gusting 9 12.8
2020-Apr-05 21:45 326 3 gusting 7 12.2
2020-Apr-05 21:32 010 3 gusting 9 12.2
2020-Apr-05 21:16 327 2 gusting 8 11.7
2020-Apr-05 21:01 326 5 gusting 10 11.7
2020-Apr-05 20:46 319 9 gusting 11 11.1
2020-Apr-05 20:31 337 9 gusting 13 10.6
2020-Apr-05 20:15 342 9 gusting 12 10.6
2020-Apr-05 20:02 344 10 gusting 13 10.0
2020-Apr-05 19:46 350 8 gusting 11 10.0
2020-Apr-05 19:31 343 9 gusting 11 9.4
2020-Apr-05 19:16 355 9 gusting 12 9.4
2020-Apr-05 19:00 034 6 gusting 8 9.4
2020-Apr-05 18:45 010 7 gusting 11 8.9
2020-Apr-05 18:31 030 7 gusting 11 8.9
2020-Apr-05 18:16 038 7 gusting 15 8.3
2020-Apr-05 18:00 032 10 gusting 13 7.8
2020-Apr-05 17:45 036 8 gusting 13 7.8
2020-Apr-05 17:30 048 8 gusting 13 7.2
2020-Apr-05 17:15 049 9 gusting 15 7.2
2020-Apr-05 17:00 046 9 gusting 13 6.7
2020-Apr-05 16:46 054 9 gusting 13 6.7
2020-Apr-05 16:30 059 8 gusting 15 6.1
2020-Apr-05 16:15 052 8 gusting 13 6.1
2020-Apr-05 16:00 044 7 gusting 11 6.7
2020-Apr-05 15:45 065 8 gusting 13 6.7
2020-Apr-05 15:30 061 7 gusting 13 6.7
2020-Apr-05 15:15 059 8 gusting 13 6.7
2020-Apr-05 15:00 069 9 gusting 13 6.7
2020-Apr-05 14:45 055 9 gusting 13 6.7
2020-Apr-05 14:30 048 9 gusting 15 6.7
2020-Apr-05 14:15 067 8 gusting 11 6.7
2020-Apr-05 14:00 076 6 gusting 10 6.7
2020-Apr-05 13:45 074 9 gusting 13 6.7
2020-Apr-05 13:30 070 8 gusting 13 6.7
2020-Apr-05 13:15 067 10 gusting 13 6.7
2020-Apr-05 12:46 070 9 gusting 16 6.7
2020-Apr-05 12:31 071 9 gusting 15 6.7
2020-Apr-05 12:16 074 10 gusting 13 6.7
2020-Apr-05 12:02 049 7 gusting 10 6.7
2020-Apr-05 11:48 042 6 gusting 11 6.7
2020-Apr-05 11:31 030 6 gusting 9 6.7
2020-Apr-05 11:16 055 5 gusting 10 6.7
2020-Apr-05 11:04 055 7 gusting 13 6.7
2020-Apr-05 10:46 046 7 gusting 11 6.7
2020-Apr-05 10:31 054 9 gusting 15 6.7
2020-Apr-05 10:16 069 10 gusting 13 6.7
2020-Apr-05 10:01 073 10 gusting 15 6.7
2020-Apr-05 09:46 059 10 gusting 13 6.7
2020-Apr-05 09:31 071 9 gusting 13 6.7
2020-Apr-05 09:16 072 8 gusting 13 6.7
2020-Apr-05 09:01 055 6 gusting 10 6.7
2020-Apr-05 08:46 081 8 gusting 11 6.7
2020-Apr-05 08:31 063 7 gusting 13 6.7
2020-Apr-05 08:16 038 5 gusting 7 6.7
2020-Apr-05 08:00 041 4 gusting 6 6.7
2020-Apr-05 07:46 024 4 gusting 7 7.2
2020-Apr-05 07:30 078 5 gusting 8 7.2
2020-Apr-05 07:16 088 7 gusting 9 7.2
2020-Apr-05 07:00 072 6 gusting 8 6.7
2020-Apr-05 06:45 065 5 gusting 7 7.2
2020-Apr-05 06:30 049 4 gusting 5 7.2
2020-Apr-05 06:16 053 2 gusting 4 7.2
2020-Apr-05 06:00 069 2 gusting 4 7.2
2020-Apr-05 05:46 345 7.8
2020-Apr-05 05:30 345 3 gusting 6 7.8
2020-Apr-05 05:15 019 3 gusting 6 7.8
2020-Apr-05 05:00 348 6 gusting 6 7.8
2020-Apr-05 04:46 348 4 gusting 6 7.2
2020-Apr-05 04:31 273 0 gusting 2 7.2
2020-Apr-05 04:16 273 0 gusting 4 7.2
2020-Apr-05 04:01 105 0 gusting 4 7.2
2020-Apr-05 03:46 105 3 gusting 4 7.2
2020-Apr-05 03:30 105 3 gusting 6 7.2
2020-Apr-05 03:16 132 3 gusting 6 7.8
2020-Apr-05 03:00 120 4 gusting 6 7.8
2020-Apr-05 02:46 112 3 gusting 5 7.8
2020-Apr-05 02:30 115 5 gusting 9 7.8
2020-Apr-05 02:15 128 9 gusting 15 8.3
2020-Apr-05 02:00 098 6 gusting 13 8.9
2020-Apr-05 01:45 350 6 gusting 10 9.4
2020-Apr-05 01:31 009 4 gusting 6 9.4
2020-Apr-05 01:16 013 3 gusting 9 9.4
2020-Apr-05 01:01 345 5 gusting 8 9.4
2020-Apr-05 00:46 355 5 gusting 10 9.4
2020-Apr-05 00:31 342 6 gusting 10 9.4
2020-Apr-05 00:15 341 6 gusting 10 9.4
2020-Apr-05 00:00 286 4 gusting 10 10.0
2020-Apr-04 23:45 305 5 gusting 12 10.0
2020-Apr-04 23:30 326 8 gusting 10 10.0
2020-Apr-04 23:15 346 8 gusting 12 9.4
2020-Apr-04 23:00 262 5 gusting 11 9.4
2020-Apr-04 22:45 283 5 gusting 9 9.4
2020-Apr-04 22:30 269 5 gusting 8 9.4
2020-Apr-04 22:15 303 5 gusting 9 9.4
2020-Apr-04 22:00 219 5 gusting 10 8.9
2020-Apr-04 21:45 265 4 gusting 8 8.9
2020-Apr-04 21:30 253 6 gusting 11 8.9
2020-Apr-04 21:15 277 4 gusting 7 8.9
2020-Apr-04 21:00 344 4 gusting 8 8.9
2020-Apr-04 20:46 348 6 gusting 10 8.3
2020-Apr-04 20:31 339 5 gusting 8 8.3
2020-Apr-04 20:17 338 6 gusting 9 7.8
2020-Apr-04 20:01 360 4 gusting 9 7.8
2020-Apr-04 19:46 360 4 gusting 8 7.8
2020-Apr-04 19:31 355 1 gusting 11 7.2
2020-Apr-04 19:16 013 6 gusting 9 7.2
2020-Apr-04 19:01 036 6 gusting 9 7.2
2020-Apr-04 18:45 040 7 gusting 13 7.2
2020-Apr-04 18:31 020 7 gusting 11 6.7
2020-Apr-04 18:16 024 8 gusting 13 6.7
2020-Apr-04 18:00 033 8 gusting 12 6.7
2020-Apr-04 17:46 040 6 gusting 9 6.1
2020-Apr-04 17:30 024 7 gusting 11 5.6
2020-Apr-04 17:15 063 8 gusting 13 5.6
2020-Apr-04 17:00 044 7 gusting 11 5.6
2020-Apr-04 16:45 038 7 gusting 10 5.0
2020-Apr-04 16:30 040 6 gusting 10 4.4
2020-Apr-04 16:15 053 6 gusting 10 3.9
2020-Apr-04 16:00 059 9 gusting 11 3.9
2020-Apr-04 15:45 081 7 gusting 9 3.3
2020-Apr-04 15:30 053 6 gusting 9 3.9
2020-Apr-04 15:15 077 6 gusting 7 3.9
2020-Apr-04 15:00 074 6 gusting 8 3.9
2020-Apr-04 14:45 070 2 gusting 4 3.9
2020-Apr-04 14:32 063 2 gusting 4 3.3
2020-Apr-04 14:16 096 1 gusting 4 3.3
2020-Apr-04 14:01 097 2 gusting 5 3.3
2020-Apr-04 13:46 097 1 gusting 3 3.3
2020-Apr-04 13:32 097 1 gusting 4 3.3
2020-Apr-04 13:15 097 3.3
2020-Apr-04 13:01 097 1 gusting 3 3.3
2020-Apr-04 12:47 097 3.3
2020-Apr-04 12:30 097 1 gusting 3 3.3
2020-Apr-04 12:16 097 0 gusting 4 3.3
2020-Apr-04 12:01 097 1 gusting 5 3.3
2020-Apr-04 11:46 112 2 gusting 4 3.9
2020-Apr-04 11:31 113 1 gusting 4 3.9
2020-Apr-04 11:16 113 3 gusting 4 3.9
2020-Apr-04 11:01 113 2 gusting 4 3.9
2020-Apr-04 10:47 114 3.9
2020-Apr-04 10:31 109 3.9
2020-Apr-04 10:16 108 3.9
2020-Apr-04 10:00 108 3.9
2020-Apr-04 09:46 108 3.9
2020-Apr-04 09:30 108 2 gusting 4 4.4
2020-Apr-04 09:15 110 3 gusting 5 4.4
2020-Apr-04 09:01 111 3 gusting 5 4.4
2020-Apr-04 08:45 111 4 gusting 6 4.4
2020-Apr-04 08:30 132 3 gusting 5 4.4
2020-Apr-04 08:15 132 2 gusting 4 5.0
2020-Apr-04 08:01 108 6 gusting 7 5.0